Time;durP1;ratioP1;P1;durP2;ratioP2;P2;SDS_P1;SDS_P2;PMS_P1;PMS_P2;Temp;Humidity;BMP_temperature;BMP_pressure;BME280_temperature;BME280_humidity;BME280_pressure;Samples;Min_cycle;Max_cycle;Signal;HPM_P1;HPM_P2
2022/03/27 00:00:24;;;;;;;20.08;12.68;;;;;;;8.30;85.08;103096.59;5052778;28;20021;-53
2022/03/27 00:02:50;;;;;;;20.63;12.50;;;;;;;8.32;84.83;103094.47;5051887;28;20097;-56
2022/03/27 00:05:15;;;;;;;21.33;12.85;;;;;;;8.28;85.60;103091.34;5052504;28;20025;-50
2022/03/27 00:07:40;;;;;;;21.10;12.82;;;;;;;8.24;85.92;103089.28;5052402;28;20460;-52
2022/03/27 00:10:06;;;;;;;21.20;13.13;;;;;;;8.24;86.73;103092.03;5052573;28;20071;-52
2022/03/27 00:12:31;;;;;;;20.38;13.10;;;;;;;8.22;86.35;103096.94;5052243;28;20052;-50
2022/03/27 00:14:57;;;;;;;22.35;13.10;;;;;;;8.19;86.57;103086.38;5053627;28;20472;-52
2022/03/27 00:17:23;;;;;;;20.65;12.90;;;;;;;8.11;86.67;103088.38;5056843;28;20104;-53
2022/03/27 00:19:49;;;;;;;20.70;12.77;;;;;;;8.11;87.02;103095.84;5056456;28;20078;-51
2022/03/27 00:22:14;;;;;;;22.40;13.00;;;;;;;8.12;86.98;103089.25;5056416;28;20028;-51
2022/03/27 00:24:40;;;;;;;20.98;13.13;;;;;;;8.05;87.41;103092.09;5056335;28;20060;-51
2022/03/27 00:27:05;;;;;;;21.02;13.15;;;;;;;8.01;87.90;103090.88;5056514;28;20346;-50
2022/03/27 00:29:30;;;;;;;21.70;12.27;;;;;;;7.97;87.92;103093.25;5056127;28;20025;-51
2022/03/27 00:31:56;;;;;;;21.73;13.23;;;;;;;7.93;88.35;103092.06;5055949;28;20028;-52
2022/03/27 00:34:21;;;;;;;20.05;12.50;;;;;;;7.92;87.82;103092.28;5056388;28;20104;-51
2022/03/27 00:36:47;;;;;;;21.75;12.80;;;;;;;7.86;88.18;103091.28;5056235;28;20031;-51
2022/03/27 00:39:12;;;;;;;20.92;12.77;;;;;;;7.85;88.46;103089.59;5056126;28;20025;-53
2022/03/27 00:41:38;;;;;;;22.05;13.18;;;;;;;7.83;88.54;103090.91;5056184;28;20029;-49
2022/03/27 00:44:03;;;;;;;21.98;12.73;;;;;;;7.77;88.34;103088.03;5054730;28;20116;-52
2022/03/27 00:46:29;;;;;;;22.33;13.35;;;;;;;7.78;88.67;103099.88;5056161;28;20025;-53
2022/03/27 00:48:54;;;;;;;21.02;13.27;;;;;;;7.76;88.77;103094.59;5055938;28;20025;-52
2022/03/27 00:51:20;;;;;;;21.23;12.57;;;;;;;7.74;88.62;103088.47;5055763;28;20115;-51
2022/03/27 00:53:45;;;;;;;20.45;12.95;;;;;;;7.70;89.06;103090.00;5055776;28;20029;-52
2022/03/27 00:56:10;;;;;;;20.08;12.55;;;;;;;7.67;88.76;103090.47;5056082;28;20426;-49
2022/03/27 00:58:36;;;;;;;22.10;13.55;;;;;;;7.64;88.91;103082.66;5055828;28;20025;-53
2022/03/27 01:01:01;;;;;;;22.05;12.65;;;;;;;7.67;88.90;103089.63;5055748;28;20079;-49
2022/03/27 01:03:27;;;;;;;21.33;12.90;;;;;;;7.64;89.06;103088.19;5055494;28;20116;-52
2022/03/27 01:05:53;;;;;;;21.35;13.35;;;;;;;7.62;89.56;103087.56;5055775;28;20271;-53
2022/03/27 01:11:16;;;;;;;21.88;13.20;;;;;;;7.54;90.01;103083.22;5055619;28;20502;-53
2022/03/27 01:13:57;;;;;;;20.65;12.40;;;;;;;7.52;90.03;103084.50;5055757;28;20045;-51
2022/03/27 01:16:43;;;;;;;22.77;13.38;;;;;;;7.47;90.45;103087.94;5055558;28;20021;-52
2022/03/27 01:19:11;;;;;;;21.98;13.35;;;;;;;7.35;90.21;103079.63;5055569;28;20032;-50
2022/03/27 01:21:40;;;;;;;22.20;13.90;;;;;;;7.30;90.63;103076.72;5055283;28;20037;-51
2022/03/27 01:24:06;;;;;;;22.95;13.57;;;;;;;7.32;91.18;103093.88;5055454;28;20028;-52
2022/03/27 01:26:33;;;;;;;24.23;14.60;;;;;;;7.25;92.12;103088.44;5054107;28;20033;-51
2022/03/27 01:28:58;;;;;;;22.10;14.23;;;;;;;7.24;91.74;103088.63;5055396;28;20113;-51
2022/03/27 01:31:24;;;;;;;22.92;14.10;;;;;;;7.22;91.84;103090.78;5055242;28;20096;-52
2022/03/27 01:33:49;;;;;;;21.38;14.10;;;;;;;7.21;91.86;103089.94;5055109;28;20473;-48
2022/03/27 01:36:25;;;;;;;22.85;14.13;;;;;;;7.17;92.11;103091.47;5055127;28;20500;-52
2022/03/27 01:38:53;;;;;;;22.02;14.43;;;;;;;7.13;92.31;103076.47;5055589;28;20029;-52
2022/03/27 01:41:18;;;;;;;23.30;14.20;;;;;;;7.10;92.77;103087.94;5055140;28;20025;-49
2022/03/27 01:43:44;;;;;;;23.80;15.10;;;;;;;7.06;93.19;103087.53;5055040;28;20075;-53
2022/03/27 01:46:09;;;;;;;24.25;14.35;;;;;;;7.00;93.35;103082.97;5055009;28;20037;-52
2022/03/27 01:48:35;;;;;;;22.40;14.30;;;;;;;7.03;93.11;103083.34;5054927;28;20033;-53
2022/03/27 01:51:00;;;;;;;21.73;13.57;;;;;;;7.05;92.86;103080.34;5053953;28;20048;-52
2022/03/27 01:53:26;;;;;;;23.27;14.55;;;;;;;7.01;93.26;103082.72;5054374;28;20021;-51
2022/03/27 01:55:51;;;;;;;22.25;14.63;;;;;;;6.99;93.44;103086.78;5054811;28;20027;-52
2022/03/27 01:58:16;;;;;;;23.38;15.38;;;;;;;6.92;94.11;103086.00;5054408;28;20500;-51
2022/03/27 02:00:43;;;;;;;26.27;16.17;;;;;;;6.87;94.97;103078.44;5054162;28;20059;-50
2022/03/27 02:03:09;;;;;;;24.55;15.80;;;;;;;6.87;95.37;103083.94;5053169;28;20031;-52
2022/03/27 02:05:34;;;;;;;22.35;14.95;;;;;;;6.90;95.17;103077.97;5054737;28;20093;-53
2022/03/27 02:08:00;;;;;;;26.35;15.88;;;;;;;6.91;95.97;103079.66;5055001;28;20111;-51
2022/03/27 02:10:25;;;;;;;23.77;15.55;;;;;;;6.93;95.01;103077.50;5054688;28;20086;-50
2022/03/27 02:12:50;;;;;;;25.92;15.80;;;;;;;6.99;95.51;103084.03;5054404;28;20163;-50
2022/03/27 02:15:16;;;;;;;24.60;15.38;;;;;;;7.07;95.49;103077.41;5054521;28;20032;-50
2022/03/27 02:17:41;;;;;;;24.15;16.17;;;;;;;7.07;95.59;103082.91;5054461;28;20097;-49
2022/03/27 02:20:07;;;;;;;26.58;16.42;;;;;;;7.08;96.00;103085.41;5054399;28;20036;-50
2022/03/27 02:22:33;;;;;;;25.33;16.60;;;;;;;7.17;94.62;103086.81;5054596;28;20035;-51
2022/03/27 02:24:58;;;;;;;24.83;16.27;;;;;;;7.18;95.07;103085.75;5054466;28;20033;-53
2022/03/27 02:27:23;;;;;;;27.77;18.50;;;;;;;7.13;96.72;103090.25;5054432;28;20024;-52
2022/03/27 02:29:49;;;;;;;27.27;18.02;;;;;;;7.13;95.92;103095.75;5054214;28;20074;-51
2022/03/27 02:32:14;;;;;;;26.52;18.02;;;;;;;7.16;95.50;103084.28;5054443;28;20032;-53
2022/03/27 02:34:40;;;;;;;25.85;17.67;;;;;;;7.17;96.19;103089.56;5054146;28;20037;-50
2022/03/27 02:37:06;;;;;;;27.63;17.70;;;;;;;7.15;95.58;103083.44;5053880;28;20032;-53
2022/03/27 02:39:31;;;;;;;28.10;19.08;;;;;;;7.16;95.55;103081.53;5053927;28;20021;-50
2022/03/27 02:41:57;;;;;;;27.83;18.83;;;;;;;7.20;95.70;103087.41;5053935;28;20052;-52
2022/03/27 02:44:22;;;;;;;26.67;18.33;;;;;;;7.20;96.54;103087.41;5054029;28;20025;-53
2022/03/27 02:46:48;;;;;;;29.40;18.67;;;;;;;7.19;96.34;103081.06;5053955;28;20511;-49
2022/03/27 02:49:13;;;;;;;28.30;18.52;;;;;;;7.21;96.29;103089.94;5054033;28;20055;-53
2022/03/27 02:51:39;;;;;;;28.23;18.63;;;;;;;7.22;96.81;103082.53;5053831;28;20021;-54
2022/03/27 02:54:06;;;;;;;28.85;19.52;;;;;;;7.18;97.23;103080.22;5053946;28;20323;-52
2022/03/27 02:56:32;;;;;;;29.10;19.48;;;;;;;7.18;96.70;103080.22;5054015;28;20056;-53
2022/03/27 02:58:57;;;;;;;28.05;18.95;;;;;;;7.18;97.11;103077.47;5053625;28;20110;-49
2022/03/27 03:01:23;;;;;;;27.73;18.23;;;;;;;7.22;96.57;103082.53;5053611;28;20029;-53
2022/03/27 03:03:48;;;;;;;28.33;18.45;;;;;;;7.18;96.81;103068.34;5053520;28;20485;-50
2022/03/27 03:06:14;;;;;;;27.15;18.00;;;;;;;7.26;96.23;103076.34;5053589;28;20377;-50
2022/03/27 03:08:39;;;;;;;28.05;18.30;;;;;;;7.29;95.93;103075.88;5053699;28;20025;-49
2022/03/27 03:11:05;;;;;;;26.05;17.38;;;;;;;7.28;96.09;103076.09;5053353;28;20075;-53
2022/03/27 03:13:30;;;;;;;26.65;17.80;;;;;;;7.27;96.46;103083.53;5051258;28;20057;-53
2022/03/27 03:15:57;;;;;;;28.15;18.85;;;;;;;7.24;97.00;103074.88;5053350;28;20112;-57
2022/03/27 03:18:24;;;;;;;27.13;18.05;;;;;;;7.22;96.74;103071.53;5053338;28;20027;-52
2022/03/27 03:20:49;;;;;;;27.52;18.33;;;;;;;7.22;96.49;103068.78;5053314;28;20021;-49
2022/03/27 03:23:14;;;;;;;28.90;19.45;;;;;;;7.18;96.79;103069.22;5053376;28;20021;-52
2022/03/27 03:25:42;;;;;;;27.98;18.80;;;;;;;7.08;97.93;103079.09;5053454;28;20449;-51
2022/03/27 03:28:07;;;;;;;27.42;18.05;;;;;;;7.06;97.53;103061.94;5051916;28;20029;-49
2022/03/27 03:30:32;;;;;;;29.58;18.98;;;;;;;7.05;98.34;103071.28;5053112;28;20539;-49
2022/03/27 03:32:58;;;;;;;27.27;18.65;;;;;;;7.05;97.21;103063.00;5053039;28;20393;-51
2022/03/27 03:35:23;;;;;;;29.05;19.33;;;;;;;6.96;98.55;103067.97;5053298;28;20035;-50
2022/03/27 03:37:48;;;;;;;28.45;19.73;;;;;;;7.06;97.26;103064.69;5053271;28;20461;-49
2022/03/27 03:40:14;;;;;;;29.02;19.08;;;;;;;6.99;97.92;103068.34;5053118;28;20117;-51
2022/03/27 03:42:40;;;;;;;30.10;19.77;;;;;;;6.97;99.32;103070.50;5053031;28;20033;-50
2022/03/27 03:45:06;;;;;;;29.88;19.52;;;;;;;7.00;98.39;103069.19;5053203;28;20086;-48
2022/03/27 03:47:31;;;;;;;30.85;20.80;;;;;;;7.01;98.46;103057.97;5052873;28;20036;-51
2022/03/27 03:49:56;;;;;;;29.92;20.52;;;;;;;7.00;99.08;103066.44;5052376;28;20039;-51
2022/03/27 03:52:21;;;;;;;30.20;20.17;;;;;;;7.07;98.18;103064.47;5052913;28;20075;-52
2022/03/27 03:54:47;;;;;;;31.33;21.35;;;;;;;7.06;98.12;103061.94;5052953;28;20107;-51
2022/03/27 03:57:12;;;;;;;30.85;20.90;;;;;;;7.02;98.55;103064.31;5052874;28;20032;-52
2022/03/27 03:59:39;;;;;;;30.52;20.50;;;;;;;6.98;99.00;103066.69;5052766;28;20034;-50
2022/03/27 04:02:08;;;;;;;30.30;20.90;;;;;;;6.96;99.79;103065.22;5053331;28;20033;-52
2022/03/27 04:04:35;;;;;;;31.20;21.02;;;;;;;7.03;98.51;103064.06;5052799;28;20083;-52
2022/03/27 04:07:01;;;;;;;30.67;20.73;;;;;;;7.03;98.62;103063.25;5052847;28;20112;-52
2022/03/27 04:09:28;;;;;;;32.08;21.85;;;;;;;6.99;99.36;103062.84;5052770;28;20432;-51
2022/03/27 04:11:53;;;;;;;31.73;20.65;;;;;;;7.01;99.17;103074.47;5052860;28;20499;-52
2022/03/27 04:14:18;;;;;;;32.42;20.38;;;;;;;7.00;98.97;103063.69;5053164;28;20045;-52
2022/03/27 04:16:44;;;;;;;33.65;22.13;;;;;;;7.00;99.84;103069.19;5052622;28;20098;-51
2022/03/27 04:19:09;;;;;;;35.30;22.83;;;;;;;6.99;99.80;103070.28;5052711;28;20017;-51
2022/03/27 04:21:34;;;;;;;33.10;21.77;;;;;;;7.00;99.57;103064.53;5052687;28;20112;-50
2022/03/27 04:24:00;;;;;;;34.10;22.77;;;;;;;6.97;100.00;103069.66;5052701;28;20032;-51
2022/03/27 04:26:25;;;;;;;34.10;22.48;;;;;;;6.90;100.00;103063.38;5052723;28;20071;-51
2022/03/27 04:28:51;;;;;;;33.35;22.17;;;;;;;6.95;100.00;103060.78;5052616;28;20058;-54
2022/03/27 04:31:18;;;;;;;34.17;22.35;;;;;;;6.94;100.00;103064.63;5052739;28;20028;-49
2022/03/27 04:33:43;;;;;;;34.38;22.23;;;;;;;6.95;99.78;103071.78;5052685;28;20025;-50
2022/03/27 04:36:08;;;;;;;33.60;21.15;;;;;;;6.94;99.25;103062.69;5052544;28;20107;-52
2022/03/27 04:38:34;;;;;;;34.28;21.90;;;;;;;6.84;99.52;103068.72;5052676;28;20108;-52
2022/03/27 04:40:59;;;;;;;35.08;22.23;;;;;;;6.79;99.28;103068.53;5052586;28;20034;-53
2022/03/27 04:43:25;;;;;;;33.25;21.45;;;;;;;6.71;99.83;103074.34;5052333;28;20033;-48
2022/03/27 04:45:51;;;;;;;31.05;20.55;;;;;;;6.71;99.73;103072.41;5052600;28;20021;-52
2022/03/27 04:48:16;;;;;;;32.60;20.50;;;;;;;6.66;99.90;103068.69;5052350;28;20037;-53
2022/03/27 04:50:42;;;;;;;31.92;20.65;;;;;;;6.63;100.00;103071.88;5052504;28;20108;-50
2022/03/27 04:53:07;;;;;;;31.63;19.27;;;;;;;6.61;100.00;103077.59;5052583;28;20075;-52
2022/03/27 04:55:33;;;;;;;36.30;21.92;;;;;;;6.60;100.00;103075.06;5052521;28;20025;-53
2022/03/27 04:57:58;;;;;;;31.95;21.45;;;;;;;6.58;100.00;103080.78;5052257;28;20109;-50
2022/03/27 05:00:24;;;;;;;34.95;21.17;;;;;;;6.57;100.00;103079.09;5052497;28;20056;-52
2022/03/27 05:02:49;;;;;;;31.65;19.88;;;;;;;6.55;99.84;103081.25;5055952;28;20370;-51
2022/03/27 05:05:15;;;;;;;30.30;18.58;;;;;;;6.51;99.10;103096.50;5055929;28;20052;-52
2022/03/27 05:07:43;;;;;;;30.10;18.08;;;;;;;6.49;98.85;103095.88;5055851;28;20037;-52
2022/03/27 05:10:09;;;;;;;32.28;19.83;;;;;;;6.36;99.44;103097.66;5055709;28;20376;-51
2022/03/27 05:12:35;;;;;;;31.63;18.08;;;;;;;6.32;100.00;103092.81;5055193;28;20178;-51
2022/03/27 05:15:01;;;;;;;32.83;19.10;;;;;;;6.28;100.00;103097.94;5055623;28;20032;-52
2022/03/27 05:17:26;;;;;;;30.27;18.20;;;;;;;6.35;99.44;103090.47;5055628;28;20029;-51
2022/03/27 05:19:51;;;;;;;33.88;19.00;;;;;;;6.31;99.40;103092.00;5055679;28;20028;-52
2022/03/27 05:22:16;;;;;;;32.28;19.35;;;;;;;6.32;99.70;103093.69;5055789;28;20032;-52
2022/03/27 05:24:42;;;;;;;30.17;18.95;;;;;;;6.31;100.00;103094.75;5055379;28;20082;-52
2022/03/27 05:27:08;;;;;;;35.05;20.33;;;;;;;6.34;100.00;103090.72;5055365;28;20044;-51
2022/03/27 05:29:34;;;;;;;35.83;20.80;;;;;;;6.31;100.00;103094.75;5055389;28;20094;-52
2022/03/27 05:31:59;;;;;;;33.75;19.65;;;;;;;6.31;100.00;103093.88;5055299;28;20480;-53
2022/03/27 05:34:25;;;;;;;34.85;20.35;;;;;;;6.29;100.00;103094.13;5055165;28;20031;-51
2022/03/27 05:36:50;;;;;;;36.53;20.35;;;;;;;6.27;100.00;103092.66;5055181;28;20076;-52
2022/03/27 05:39:16;;;;;;;35.13;20.42;;;;;;;6.27;100.00;103090.75;5055027;28;20449;-51
2022/03/27 05:41:42;;;;;;;35.13;20.75;;;;;;;6.33;100.00;103092.59;5054826;28;20039;-51
2022/03/27 05:44:07;;;;;;;37.20;21.65;;;;;;;6.28;100.00;103084.19;5054975;28;20025;-53
2022/03/27 05:46:33;;;;;;;34.33;19.58;;;;;;;6.28;100.00;103091.59;5054957;28;20020;-50
2022/03/27 05:48:58;;;;;;;37.63;21.35;;;;;;;6.22;100.00;103090.59;5053539;28;20021;-50
2022/03/27 05:51:23;;;;;;;37.42;21.10;;;;;;;6.22;100.00;103101.56;5053819;28;20075;-52
2022/03/27 05:53:49;;;;;;;36.22;20.70;;;;;;;6.26;100.00;103099.22;5053970;28;20032;-50
2022/03/27 05:56:14;;;;;;;36.53;20.70;;;;;;;6.28;100.00;103099.84;5054090;28;20053;-53
2022/03/27 05:58:39;;;;;;;38.58;21.20;;;;;;;6.28;100.00;103105.34;5054632;28;20108;-50
2022/03/27 06:01:05;;;;;;;37.17;21.17;;;;;;;6.31;100.00;103108.50;5054602;28;20036;-53
2022/03/27 06:03:30;;;;;;;35.60;20.92;;;;;;;6.31;100.00;103107.63;5054257;28;20040;-51
2022/03/27 06:05:56;;;;;;;40.65;22.33;;;;;;;6.30;100.00;103114.19;5054664;28;20044;-55
2022/03/27 06:08:21;;;;;;;37.60;21.38;;;;;;;6.23;100.00;103114.25;5054492;28;20025;-52
2022/03/27 06:10:48;;;;;;;41.10;22.70;;;;;;;6.20;100.00;103115.53;5054558;28;20111;-54
2022/03/27 06:13:14;;;;;;;39.65;22.35;;;;;;;6.21;100.00;103119.97;5053203;28;20079;-51
2022/03/27 06:15:40;;;;;;;41.67;22.45;;;;;;;6.28;100.00;103116.34;5054628;28;20025;-52
2022/03/27 06:18:09;;;;;;;41.45;24.08;;;;;;;6.26;100.00;103121.22;5054306;28;20083;-52
2022/03/27 06:20:35;;;;;;;39.33;22.83;;;;;;;6.28;100.00;103124.59;5054250;28;20033;-51
2022/03/27 06:23:01;;;;;;;41.38;22.30;;;;;;;6.20;100.00;103123.75;5054162;28;20039;-53
2022/03/27 06:25:28;;;;;;;39.65;21.35;;;;;;;6.22;100.00;103123.56;5054138;28;20051;-53
2022/03/27 06:27:55;;;;;;;43.60;24.33;;;;;;;6.20;100.00;103121.03;5054197;28;20083;-53
2022/03/27 06:30:23;;;;;;;40.25;22.17;;;;;;;6.15;100.00;103117.25;5052916;28;20507;-52
2022/03/27 06:32:49;;;;;;;41.22;22.27;;;;;;;6.26;100.00;103126.72;5053760;28;20473;-54
2022/03/27 06:35:16;;;;;;;42.33;22.02;;;;;;;6.27;100.00;103117.41;5053911;28;20025;-50
2022/03/27 06:37:42;;;;;;;42.75;22.42;;;;;;;6.35;100.00;103131.72;5053863;28;20435;-51
2022/03/27 06:40:09;;;;;;;40.20;20.83;;;;;;;6.38;100.00;103136.78;5053724;28;20527;-54
2022/03/27 06:42:35;;;;;;;39.55;20.77;;;;;;;6.41;100.00;103138.25;5053730;28;20029;-50
2022/03/27 06:45:00;;;;;;;40.13;21.48;;;;;;;6.36;100.00;103133.41;5053744;28;20033;-52
2022/03/27 06:47:27;;;;;;;39.13;21.30;;;;;;;6.37;100.00;103139.75;5053550;28;20186;-54
2022/03/27 06:49:55;;;;;;;41.88;21.95;;;;;;;6.33;100.00;103133.84;5053362;28;20111;-51
2022/03/27 06:52:21;;;;;;;37.53;20.58;;;;;;;6.43;99.51;103129.75;5053302;28;20166;-54
2022/03/27 06:54:47;;;;;;;39.00;20.60;;;;;;;6.49;99.12;103128.88;5053445;28;20017;-54
2022/03/27 06:57:14;;;;;;;37.40;21.10;;;;;;;6.39;100.00;103126.63;5053128;28;20025;-54
2022/03/27 07:05:09;;;;;;;41.17;20.83;;;;;;;6.41;99.48;103124.50;5053510;28;19961;-50
2022/03/27 07:07:35;;;;;;;44.38;23.17;;;;;;;6.45;99.42;103134.00;5053584;28;20033;-52
2022/03/27 07:10:00;;;;;;;39.88;20.77;;;;;;;6.45;99.70;103130.38;5053087;28;20040;-51
2022/03/27 07:12:26;;;;;;;38.45;20.48;;;;;;;6.46;99.15;103140.31;5051367;28;20025;-54
2022/03/27 07:14:51;;;;;;;36.85;19.58;;;;;;;6.43;98.44;103136.13;5052952;28;20049;-53
2022/03/27 07:17:17;;;;;;;34.42;18.98;;;;;;;6.47;98.04;103129.09;5053183;28;20029;-52
2022/03/27 07:19:44;;;;;;;36.92;20.15;;;;;;;6.41;98.33;103130.00;5053956;28;20389;-52
2022/03/27 07:22:09;;;;;;;36.60;20.15;;;;;;;6.45;97.95;103134.00;5053046;28;20057;-51
2022/03/27 07:24:34;;;;;;;34.75;18.92;;;;;;;6.54;97.14;103129.91;5052228;28;20122;-52
2022/03/27 07:26:59;;;;;;;34.78;20.23;;;;;;;6.62;96.59;103138.94;5052963;28;20029;-50
2022/03/27 07:29:25;;;;;;;37.47;22.08;;;;;;;6.57;96.61;103134.13;5053177;28;20033;-53
2022/03/27 07:31:50;;;;;;;35.80;20.75;;;;;;;6.52;96.70;103132.03;5052948;28;20035;-53
2022/03/27 07:34:19;;;;;;;36.63;19.30;;;;;;;6.52;96.67;103125.66;5052898;28;20029;-53
2022/03/27 07:36:44;;;;;;;35.72;20.15;;;;;;;6.58;97.04;103133.06;5053091;28;20132;-52
2022/03/27 07:39:11;;;;;;;36.10;19.42;;;;;;;6.60;95.92;103128.19;5051595;28;20408;-52
2022/03/27 07:41:36;;;;;;;34.10;19.00;;;;;;;6.56;95.82;103130.50;5053228;28;20029;-51
2022/03/27 07:44:01;;;;;;;35.63;20.23;;;;;;;6.64;96.23;103134.91;5049797;28;20145;-53
2022/03/27 07:46:27;;;;;;;31.98;18.25;;;;;;;6.67;94.82;103128.09;5042639;28;20107;-54
2022/03/27 07:48:52;;;;;;;32.50;19.40;;;;;;;6.61;94.59;103129.88;5034465;28;20021;-54
2022/03/27 07:51:17;;;;;;;35.25;18.77;;;;;;;6.67;94.90;103128.97;5032999;28;20037;-54
2022/03/27 07:53:43;;;;;;;34.67;17.90;;;;;;;6.76;93.99;103140.50;5032726;28;20029;-53
2022/03/27 07:56:08;;;;;;;30.48;18.55;;;;;;;6.68;93.27;103135.28;5032869;28;20068;-54
2022/03/27 07:58:34;;;;;;;31.42;17.08;;;;;;;6.59;93.71;103133.88;5033133;28;20033;-50
2022/03/27 08:00:59;;;;;;;32.45;18.40;;;;;;;6.67;94.59;103131.72;5032930;28;20478;-53
2022/03/27 08:03:25;;;;;;;29.92;16.60;;;;;;;6.79;nan;103131.00;5032691;28;20090;-52
2022/03/27 08:05:50;;;;;;;30.75;17.02;;;;;;;6.90;92.35;103135.75;5032645;28;20060;-53
2022/03/27 08:08:17;;;;;;;29.40;16.08;;;;;;;6.95;91.45;103140.56;5032749;28;20057;-54
2022/03/27 08:10:43;;;;;;;28.02;15.95;;;;;;;7.04;91.21;103133.72;5032790;28;20033;-53
2022/03/27 08:13:08;;;;;;;27.35;15.68;;;;;;;7.13;90.62;103132.34;5032231;28;20050;-50
2022/03/27 08:15:33;;;;;;;26.90;16.00;;;;;;;7.18;90.02;103138.03;5032470;28;20026;-50
2022/03/27 08:17:59;;;;;;;27.40;15.30;;;;;;;7.34;89.72;103133.00;5032419;28;20025;-51
2022/03/27 08:20:25;;;;;;;26.40;15.38;;;;;;;7.41;88.25;103141.19;5032523;28;20124;-53
2022/03/27 08:22:51;;;;;;;27.45;15.60;;;;;;;7.48;88.40;103140.06;5032780;28;20030;-52
2022/03/27 08:26:55;;;;;;;26.50;14.85;;;;;;;7.60;88.41;103131.88;5032010;28;20034;-54
2022/03/27 08:28:02;;;;;;;25.45;14.35;;;;;;;7.77;87.17;103134.00;5031917;28;20041;-50
2022/03/27 08:30:28;;;;;;;26.20;14.82;;;;;;;7.85;86.58;103132.84;5030166;28;20021;-52
2022/03/27 08:32:53;;;;;;;27.92;16.13;;;;;;;7.94;85.95;103136.97;5029666;28;20100;-54
2022/03/27 08:35:18;;;;;;;27.33;15.50;;;;;;;7.99;85.36;103128.00;5028741;28;20037;-50
2022/03/27 08:37:44;;;;;;;26.40;15.48;;;;;;;7.95;84.98;103133.16;5033210;28;20381;-53
2022/03/27 08:40:09;;;;;;;27.35;15.93;;;;;;;8.03;85.31;103141.09;5033351;28;20095;-52
2022/03/27 08:42:35;;;;;;;27.27;15.50;;;;;;;8.10;84.26;103144.59;5048042;28;20026;-52
2022/03/27 08:45:00;;;;;;;25.38;14.23;;;;;;;8.19;84.53;103136.84;5032686;28;20503;-54
2022/03/27 08:47:28;;;;;;;25.33;14.10;;;;;;;8.18;83.85;103137.06;5042969;28;20045;-50
2022/03/27 08:50:04;;;;;;;26.40;14.20;;;;;;;8.32;83.59;103133.06;5050137;28;20033;-50
2022/03/27 08:52:39;;;;;;;26.23;14.95;;;;;;;8.34;82.98;103135.56;5050593;28;20131;-50
2022/03/27 08:55:07;;;;;;;27.00;15.43;;;;;;;8.48;83.18;103137.09;5053210;28;20036;-53
2022/03/27 08:57:52;;;;;;;27.50;16.05;;;;;;;8.71;82.29;103140.97;5050805;28;20028;-49
2022/03/27 09:00:23;;;;;;;27.63;16.02;;;;;;;8.92;80.95;103133.22;5052887;28;20104;-53
2022/03/27 09:02:49;;;;;;;28.05;16.60;;;;;;;9.07;79.49;103135.50;5052676;28;20028;-51
2022/03/27 09:05:15;;;;;;;27.08;15.23;;;;;;;9.28;78.83;103137.69;5052902;28;20477;-53
2022/03/27 09:07:40;;;;;;;28.15;16.25;;;;;;;9.45;78.09;103139.69;5053041;28;20071;-50
2022/03/27 09:10:10;;;;;;;27.00;15.82;;;;;;;9.65;77.76;103145.69;5052838;28;20507;-54
2022/03/27 09:12:36;;;;;;;29.48;17.35;;;;;;;9.80;76.73;103133.25;5052571;28;20032;-54
2022/03/27 09:15:07;;;;;;;26.65;15.57;;;;;;;9.86;75.75;103129.53;5053166;28;20108;-51
2022/03/27 09:17:32;;;;;;;28.63;15.40;;;;;;;9.97;75.59;103131.38;5053351;28;20063;-53
2022/03/27 09:19:57;;;;;;;27.33;15.57;;;;;;;9.98;74.92;103129.47;5052543;28;20485;-49
2022/03/27 09:22:29;;;;;;;27.40;15.52;;;;;;;10.14;75.18;103130.63;5052997;28;20037;-50
2022/03/27 09:25:04;;;;;;;26.77;15.98;;;;;;;10.07;73.77;103130.75;5052662;28;20507;-53
2022/03/27 09:27:30;;;;;;;26.95;15.57;;;;;;;10.13;74.07;103132.53;5052990;28;20029;-49
2022/03/27 09:30:08;;;;;;;26.90;15.15;;;;;;;10.03;73.56;103129.56;5052645;28;20469;-52
2022/03/27 09:32:38;;;;;;;26.88;16.42;;;;;;;10.10;73.72;103127.53;5052370;28;20025;-52
2022/03/27 09:35:12;;;;;;;26.30;15.70;;;;;;;10.14;73.43;103123.16;5051825;28;20096;-52
2022/03/27 09:37:45;;;;;;;26.73;16.17;;;;;;;10.12;73.47;103118.97;5051832;28;20079;-51
2022/03/27 09:40:12;;;;;;;27.75;16.52;;;;;;;10.09;72.67;103123.06;5052909;28;20032;-51
2022/03/27 09:42:39;;;;;;;28.45;16.08;;;;;;;9.99;72.98;103118.16;5052335;28;20087;-53
2022/03/27 09:45:18;;;;;;;27.15;15.43;;;;;;;10.08;74.46;103113.09;5052206;28;20040;-53
2022/03/27 09:47:48;;;;;;;27.92;15.80;;;;;;;10.12;73.78;103117.03;5051041;28;20425;-53
2022/03/27 09:50:34;;;;;;;26.95;15.73;;;;;;;10.26;73.86;103114.78;5052212;28;20492;-52
2022/03/27 09:53:19;;;;;;;27.33;16.00;;;;;;;10.35;73.10;103103.31;5052031;28;20029;-53
2022/03/27 09:55:45;;;;;;;27.13;16.30;;;;;;;10.39;72.74;103112.84;5049319;28;20491;-53
2022/03/27 09:58:12;;;;;;;27.08;16.40;;;;;;;10.38;72.27;103100.09;5042003;28;20116;-52
2022/03/27 10:00:38;;;;;;;27.65;16.45;;;;;;;10.42;72.71;103092.97;5036519;28;20042;-51
2022/03/27 10:03:10;;;;;;;27.23;16.48;;;;;;;10.49;71.94;103095.56;5031918;28;20489;-51
2022/03/27 10:05:36;;;;;;;27.42;15.70;;;;;;;10.51;71.57;103088.72;5031682;28;20100;-52
2022/03/27 10:08:01;;;;;;;28.27;16.92;;;;;;;10.68;71.55;103090.63;5032141;28;20124;-49
2022/03/27 10:10:27;;;;;;;27.40;16.52;;;;;;;10.87;70.89;103092.06;5032218;28;20112;-50
2022/03/27 10:12:56;;;;;;;27.73;16.15;;;;;;;10.90;70.27;103091.56;5031844;28;20061;-50
2022/03/27 10:15:30;;;;;;;26.40;15.65;;;;;;;11.02;69.35;103080.38;5032425;28;20108;-52
2022/03/27 10:18:09;;;;;;;26.33;14.98;;;;;;;11.15;68.11;103086.63;5031973;28;20393;-52
2022/03/27 10:20:36;;;;;;;25.65;14.75;;;;;;;11.25;66.80;103072.91;5032190;28;20033;-53
2022/03/27 10:23:09;;;;;;;25.77;14.90;;;;;;;11.28;66.47;103079.91;5032065;28;20486;-48
2022/03/27 10:25:38;;;;;;;26.13;15.45;;;;;;;11.27;66.47;103067.97;5032392;28;20091;-53
2022/03/27 10:28:06;;;;;;;25.05;14.82;;;;;;;11.33;67.15;103077.19;5031797;28;20021;-53
2022/03/27 10:30:32;;;;;;;25.77;15.30;;;;;;;11.50;65.22;103066.88;5030246;28;20040;-50
2022/03/27 10:33:00;;;;;;;24.77;14.13;;;;;;;11.55;63.55;103066.97;5031898;28;20038;-52
2022/03/27 10:35:44;;;;;;;24.55;14.20;;;;;;;11.61;64.38;103053.16;5048312;28;20055;-52
2022/03/27 10:38:34;;;;;;;24.60;14.50;;;;;;;11.68;62.47;103062.94;5051949;28;20033;-50
2022/03/27 10:41:15;;;;;;;24.42;13.85;;;;;;;11.66;62.25;103056.81;5010718;28;20540;-51
2022/03/27 10:43:48;;;;;;;24.30;14.30;;;;;;;11.77;63.04;103049.44;5051532;28;20461;-51
2022/03/27 10:46:21;;;;;;;23.73;14.10;;;;;;;11.86;62.04;103035.97;5051514;28;20056;-50
2022/03/27 10:48:48;;;;;;;23.98;14.32;;;;;;;12.02;62.13;103051.69;5051475;28;20040;-53
2022/03/27 10:51:26;;;;;;;23.58;13.57;;;;;;;12.20;62.59;103038.53;5051540;28;20044;-49
2022/03/27 10:54:11;;;;;;;24.83;13.68;;;;;;;12.30;61.39;103043.34;5051571;28;20107;-50
2022/03/27 10:56:39;;;;;;;23.02;13.10;;;;;;;12.30;59.67;103035.84;5049465;28;20738;-50
2022/03/27 10:59:11;;;;;;;23.67;12.95;;;;;;;12.44;60.03;103043.75;5051474;28;20074;-51
2022/03/27 11:01:39;;;;;;;23.15;13.68;;;;;;;12.49;58.02;103046.56;5050922;28;20032;-53
2022/03/27 11:04:10;;;;;;;26.20;13.52;;;;;;;12.49;57.50;103041.00;5050582;28;20572;-52
2022/03/27 11:06:38;;;;;;;22.80;13.30;;;;;;;12.50;57.57;103034.34;5050093;28;20411;-60
2022/03/27 11:09:06;;;;;;;23.38;12.82;;;;;;;12.62;57.58;103040.56;5051132;28;20036;-54
2022/03/27 11:11:33;;;;;;;24.55;14.00;;;;;;;12.60;57.35;103036.38;5051379;28;20025;-53
2022/03/27 11:13:59;;;;;;;23.85;13.68;;;;;;;12.68;57.74;103035.88;5050620;28;20079;-54
2022/03/27 11:16:25;;;;;;;21.52;11.95;;;;;;;12.81;56.69;103029.03;5050984;28;20025;-53
2022/03/27 11:18:50;;;;;;;21.95;11.85;;;;;;;12.93;54.48;103017.69;5050735;28;20032;-51
2022/03/27 11:21:27;;;;;;;22.45;12.70;;;;;;;12.98;54.96;103028.00;5050478;28;20021;-52